sensor_id;sensor_type;location;lat;lon;timestamp;pressure;altitude;pressure_sealevel;temperature;humidity
54194;BME280;40102;50.906;6.972;2023-03-23T00:02:10;99920.06;;;12.56;72.18
54194;BME280;40102;50.906;6.972;2023-03-23T00:04:36;99915.56;;;12.57;72.30
54194;BME280;40102;50.906;6.972;2023-03-23T00:07:02;99937.88;;;12.57;72.14
54194;BME280;40102;50.906;6.972;2023-03-23T00:09:28;99909.22;;;12.58;72.20
54194;BME280;40102;50.906;6.972;2023-03-23T00:11:55;99894.09;;;12.57;71.93
54194;BME280;40102;50.906;6.972;2023-03-23T00:14:31;99893.97;;;12.58;72.06
54194;BME280;40102;50.906;6.972;2023-03-23T00:17:06;99909.34;;;12.56;72.50
54194;BME280;40102;50.906;6.972;2023-03-23T00:19:32;99897.63;;;12.57;72.90
54194;BME280;40102;50.906;6.972;2023-03-23T00:21:57;99896.78;;;12.57;72.54
54194;BME280;40102;50.906;6.972;2023-03-23T00:24:25;99910.31;;;12.55;72.79
54194;BME280;40102;50.906;6.972;2023-03-23T00:26:51;99898.84;;;12.53;72.79
54194;BME280;40102;50.906;6.972;2023-03-23T00:29:21;99903.84;;;12.58;72.63
54194;BME280;40102;50.906;6.972;2023-03-23T00:31:47;99906.66;;;12.56;72.64
54194;BME280;40102;50.906;6.972;2023-03-23T00:34:18;99908.50;;;12.56;72.84
54194;BME280;40102;50.906;6.972;2023-03-23T00:36:48;99903.97;;;12.56;72.61
54194;BME280;40102;50.906;6.972;2023-03-23T00:39:15;99905.81;;;12.56;72.68
54194;BME280;40102;50.906;6.972;2023-03-23T00:41:42;99897.75;;;12.56;72.83
54194;BME280;40102;50.906;6.972;2023-03-23T00:44:08;99901.28;;;12.56;73.05
54194;BME280;40102;50.906;6.972;2023-03-23T00:46:33;99904.72;;;12.58;72.79
54194;BME280;40102;50.906;6.972;2023-03-23T00:48:58;99895.94;;;12.56;72.89
54194;BME280;40102;50.906;6.972;2023-03-23T00:51:24;99884.34;;;12.56;73.30
54194;BME280;40102;50.906;6.972;2023-03-23T00:53:49;99879.09;;;12.54;72.84
54194;BME280;40102;50.906;6.972;2023-03-23T00:56:15;99895.06;;;12.56;72.54
54194;BME280;40102;50.906;6.972;2023-03-23T00:58:41;99872.75;;;12.55;72.24
54194;BME280;40102;50.906;6.972;2023-03-23T01:01:06;99877.28;;;12.55;72.39
54194;BME280;40102;50.906;6.972;2023-03-23T01:03:32;99880.81;;;12.55;72.81
54194;BME280;40102;50.906;6.972;2023-03-23T01:06:07;99870.31;;;12.52;73.05
54194;BME280;40102;50.906;6.972;2023-03-23T01:08:33;99876.53;;;12.53;73.40
54194;BME280;40102;50.906;6.972;2023-03-23T01:11:04;99874.81;;;12.52;73.40
54194;BME280;40102;50.906;6.972;2023-03-23T01:13:29;99858.97;;;12.49;73.69
54194;BME280;40102;50.906;6.972;2023-03-23T01:15:55;99862.50;;;12.49;73.73
54194;BME280;40102;50.906;6.972;2023-03-23T01:18:20;99869.69;;;12.49;73.52
54194;BME280;40102;50.906;6.972;2023-03-23T01:20:45;99860.19;;;12.45;73.71
54194;BME280;40102;50.906;6.972;2023-03-23T01:23:11;99865.78;;;12.42;73.34
54194;BME280;40102;50.906;6.972;2023-03-23T01:25:36;99859.22;;;12.46;73.08
54194;BME280;40102;50.906;6.972;2023-03-23T01:28:02;99859.09;;;12.47;72.94
54194;BME280;40102;50.906;6.972;2023-03-23T01:30:27;99843.00;;;12.47;73.06
54194;BME280;40102;50.906;6.972;2023-03-23T01:32:54;99850.31;;;12.45;73.33
54194;BME280;40102;50.906;6.972;2023-03-23T01:35:22;99856.16;;;12.50;73.27
54194;BME280;40102;50.906;6.972;2023-03-23T01:37:48;99852.63;;;12.50;73.25
54194;BME280;40102;50.906;6.972;2023-03-23T01:40:16;99856.28;;;12.49;73.20
54194;BME280;40102;50.906;6.972;2023-03-23T01:42:42;99862.63;;;12.48;73.16
54194;BME280;40102;50.906;6.972;2023-03-23T01:45:25;99858.72;;;12.52;73.28
54194;BME280;40102;50.906;6.972;2023-03-23T01:50:24;99844.69;;;12.48;74.20
54194;BME280;40102;50.906;6.972;2023-03-23T01:52:52;99846.53;;;12.48;74.64
54194;BME280;40102;50.906;6.972;2023-03-23T01:55:18;99846.88;;;12.43;75.43
54194;BME280;40102;50.906;6.972;2023-03-23T01:57:45;99850.41;;;12.44;75.83
54194;BME280;40102;50.906;6.972;2023-03-23T02:00:11;99856.75;;;12.43;76.26
54194;BME280;40102;50.906;6.972;2023-03-23T02:02:44;99856.13;;;12.39;76.53
54194;BME280;40102;50.906;6.972;2023-03-23T02:05:15;99862.97;;;12.43;75.69
54194;BME280;40102;50.906;6.972;2023-03-23T02:07:45;99842.00;;;12.37;76.25
54194;BME280;40102;50.906;6.972;2023-03-23T02:10:11;99844.56;;;12.39;76.45
54194;BME280;40102;50.906;6.972;2023-03-23T02:12:37;99839.31;;;12.37;76.42
54194;BME280;40102;50.906;6.972;2023-03-23T02:15:02;99853.06;;;12.32;77.03
54194;BME280;40102;50.906;6.972;2023-03-23T02:36:51;99776.00;;;12.12;78.52
54194;BME280;40102;50.906;6.972;2023-03-23T02:39:37;99762.84;;;12.09;78.56
54194;BME280;40102;50.906;6.972;2023-03-23T02:42:12;99748.56;;;12.09;78.55
54194;BME280;40102;50.906;6.972;2023-03-23T02:44:42;99749.78;;;12.05;78.81
54194;BME280;40102;50.906;6.972;2023-03-23T02:47:19;99778.28;;;12.06;78.45
54194;BME280;40102;50.906;6.972;2023-03-23T02:49:49;99786.34;;;12.06;78.08
54194;BME280;40102;50.906;6.972;2023-03-23T02:52:20;99789.00;;;12.06;78.37
54194;BME280;40102;50.906;6.972;2023-03-23T02:54:48;99785.38;;;12.07;78.28
54194;BME280;40102;50.906;6.972;2023-03-23T02:57:17;99789.75;;;12.08;77.76
54194;BME280;40102;50.906;6.972;2023-03-23T02:59:45;99789.50;;;12.11;77.81
54194;BME280;40102;50.906;6.972;2023-03-23T03:02:46;99792.19;;;12.11;77.81
54194;BME280;40102;50.906;6.972;2023-03-23T03:08:43;99780.00;;;12.07;77.72
54194;BME280;40102;50.906;6.972;2023-03-23T03:11:16;99780.84;;;12.07;78.03
54194;BME280;40102;50.906;6.972;2023-03-23T03:19:09;99786.69;;;12.01;78.26
54194;BME280;40102;50.906;6.972;2023-03-23T03:21:39;99793.88;;;12.00;78.54
54194;BME280;40102;50.906;6.972;2023-03-23T03:24:06;99790.56;;;11.97;78.34
54194;BME280;40102;50.906;6.972;2023-03-23T03:26:38;99792.41;;;11.96;78.38
54194;BME280;40102;50.906;6.972;2023-03-23T03:29:04;99784.34;;;11.96;78.51
54194;BME280;40102;50.906;6.972;2023-03-23T03:31:35;99800.44;;;11.96;78.51
54194;BME280;40102;50.906;6.972;2023-03-23T03:34:03;99789.94;;;11.93;78.30
54194;BME280;40102;50.906;6.972;2023-03-23T03:36:30;99799.56;;;11.96;78.46
54194;BME280;40102;50.906;6.972;2023-03-23T03:39:07;99781.28;;;11.90;78.47
54194;BME280;40102;50.906;6.972;2023-03-23T03:41:37;99801.41;;;11.95;78.62
54194;BME280;40102;50.906;6.972;2023-03-23T03:44:04;99803.47;;;11.92;78.88
54194;BME280;40102;50.906;6.972;2023-03-23T03:46:30;99803.69;;;11.89;78.95
54194;BME280;40102;50.906;6.972;2023-03-23T03:48:56;99801.88;;;11.89;78.97
54194;BME280;40102;50.906;6.972;2023-03-23T03:51:23;99802.59;;;11.91;79.00
54194;BME280;40102;50.906;6.972;2023-03-23T03:53:48;99795.66;;;11.89;79.16
54194;BME280;40102;50.906;6.972;2023-03-23T03:56:14;99813.22;;;11.93;79.02
54194;BME280;40102;50.906;6.972;2023-03-23T03:58:39;99807.97;;;11.91;79.02
54194;BME280;40102;50.906;6.972;2023-03-23T04:01:08;99794.44;;;11.93;79.06
54194;BME280;40102;50.906;6.972;2023-03-23T04:03:36;99792.75;;;11.92;79.19
54194;BME280;40102;50.906;6.972;2023-03-23T04:06:01;99805.06;;;11.94;79.40
54194;BME280;40102;50.906;6.972;2023-03-23T04:08:27;99790.69;;;11.95;79.27
54194;BME280;40102;50.906;6.972;2023-03-23T04:10:53;99789.84;;;11.95;79.15
54194;BME280;40102;50.906;6.972;2023-03-23T04:13:19;99795.19;;;11.95;79.27
54194;BME280;40102;50.906;6.972;2023-03-23T04:15:45;99812.88;;;11.97;78.97
54194;BME280;40102;50.906;6.972;2023-03-23T04:18:11;99798.72;;;11.95;79.47
54194;BME280;40102;50.906;6.972;2023-03-23T04:20:37;99801.41;;;11.95;79.25
54194;BME280;40102;50.906;6.972;2023-03-23T04:23:03;99798.97;;;11.92;78.98
54194;BME280;40102;50.906;6.972;2023-03-23T04:25:28;99802.25;;;11.96;79.25
54194;BME280;40102;50.906;6.972;2023-03-23T04:27:58;99790.81;;;11.94;79.22
54194;BME280;40102;50.906;6.972;2023-03-23T04:30:26;99801.41;;;11.95;79.17
54194;BME280;40102;50.906;6.972;2023-03-23T04:32:52;99807.72;;;11.94;79.29
54194;BME280;40102;50.906;6.972;2023-03-23T04:35:21;99809.22;;;11.98;78.92
54194;BME280;40102;50.906;6.972;2023-03-23T04:37:48;99803.34;;;11.93;79.08
54194;BME280;40102;50.906;6.972;2023-03-23T04:40:14;99819.53;;;11.92;79.42
54194;BME280;40102;50.906;6.972;2023-03-23T04:42:41;99822.34;;;11.90;79.71
54194;BME280;40102;50.906;6.972;2023-03-23T04:45:10;99807.13;;;11.91;79.69
54194;BME280;40102;50.906;6.972;2023-03-23T04:47:37;99816.00;;;11.91;80.06
54194;BME280;40102;50.906;6.972;2023-03-23T04:50:12;99816.97;;;11.90;80.10
54194;BME280;40102;50.906;6.972;2023-03-23T04:52:39;99821.59;;;11.88;80.17
54194;BME280;40102;50.906;6.972;2023-03-23T04:55:06;99815.03;;;11.92;80.24
54194;BME280;40102;50.906;6.972;2023-03-23T04:57:32;99807.72;;;11.94;80.13
54194;BME280;40102;50.906;6.972;2023-03-23T04:59:58;99815.38;;;11.88;80.65
54194;BME280;40102;50.906;6.972;2023-03-23T05:02:23;99821.47;;;11.90;80.56
54194;BME280;40102;50.906;6.972;2023-03-23T05:04:50;99811.84;;;11.87;80.73
54194;BME280;40102;50.906;6.972;2023-03-23T05:07:16;99818.69;;;11.91;80.65
54194;BME280;40102;50.906;6.972;2023-03-23T05:09:41;99828.56;;;11.91;80.98
54194;BME280;40102;50.906;6.972;2023-03-23T05:12:08;99830.88;;;11.95;81.09
54194;BME280;40102;50.906;6.972;2023-03-23T05:14:34;99825.63;;;11.94;81.00
54194;BME280;40102;50.906;6.972;2023-03-23T05:16:59;99828.66;;;11.89;81.29
54194;BME280;40102;50.906;6.972;2023-03-23T05:19:26;99835.72;;;11.90;81.27
54194;BME280;40102;50.906;6.972;2023-03-23T05:21:53;99830.16;;;11.93;81.02
54194;BME280;40102;50.906;6.972;2023-03-23T05:24:19;99829.91;;;11.96;81.06
54194;BME280;40102;50.906;6.972;2023-03-23T05:26:44;99836.88;;;11.99;80.71
54194;BME280;40102;50.906;6.972;2023-03-23T05:29:13;99831.75;;;11.96;80.87
54194;BME280;40102;50.906;6.972;2023-03-23T05:31:39;99827.34;;;11.95;81.08
54194;BME280;40102;50.906;6.972;2023-03-23T05:34:05;99824.78;;;11.93;80.66
54194;BME280;40102;50.906;6.972;2023-03-23T05:36:30;99833.41;;;11.86;80.65
54194;BME280;40102;50.906;6.972;2023-03-23T05:38:55;99839.38;;;11.89;80.58
54194;BME280;40102;50.906;6.972;2023-03-23T05:41:21;99840.13;;;11.91;80.77
54194;BME280;40102;50.906;6.972;2023-03-23T05:43:48;99841.94;;;11.91;80.21
54194;BME280;40102;50.906;6.972;2023-03-23T05:46:13;99832.19;;;11.90;80.02
54194;BME280;40102;50.906;6.972;2023-03-23T05:48:39;99830.25;;;11.92;79.87
54194;BME280;40102;50.906;6.972;2023-03-23T05:51:05;99842.69;;;11.93;79.56
54194;BME280;40102;50.906;6.972;2023-03-23T05:53:30;99837.44;;;11.91;79.37
54194;BME280;40102;50.906;6.972;2023-03-23T05:56:00;99832.81;;;11.93;79.29
54194;BME280;40102;50.906;6.972;2023-03-23T05:58:26;99831.13;;;11.92;78.91
54194;BME280;40102;50.906;6.972;2023-03-23T06:00:51;99839.03;;;11.94;78.97
54194;BME280;40102;50.906;6.972;2023-03-23T06:03:17;99839.91;;;11.94;78.77
54194;BME280;40102;50.906;6.972;2023-03-23T06:05:43;99846.34;;;11.92;78.60
54194;BME280;40102;50.906;6.972;2023-03-23T06:08:11;99850.63;;;11.94;78.40
54194;BME280;40102;50.906;6.972;2023-03-23T06:10:37;99853.41;;;11.93;77.64
54194;BME280;40102;50.906;6.972;2023-03-23T06:13:04;99853.53;;;11.91;77.83
54194;BME280;40102;50.906;6.972;2023-03-23T06:15:30;99864.13;;;11.93;77.50
54194;BME280;40102;50.906;6.972;2023-03-23T06:18:01;99856.94;;;11.93;77.13
54194;BME280;40102;50.906;6.972;2023-03-23T06:20:28;99853.19;;;11.96;76.82
54194;BME280;40102;50.906;6.972;2023-03-23T06:22:53;99862.59;;;12.02;76.50
54194;BME280;40102;50.906;6.972;2023-03-23T06:25:18;99860.88;;;12.00;76.41
54194;BME280;40102;50.906;6.972;2023-03-23T06:27:44;99873.06;;;12.05;75.99
54194;BME280;40102;50.906;6.972;2023-03-23T06:30:12;99867.72;;;12.05;75.77
54194;BME280;40102;50.906;6.972;2023-03-23T06:32:40;99863.22;;;12.05;74.95
54194;BME280;40102;50.906;6.972;2023-03-23T06:35:07;99862.97;;;12.08;74.30
54194;BME280;40102;50.906;6.972;2023-03-23T06:37:35;99870.28;;;12.06;74.25
54194;BME280;40102;50.906;6.972;2023-03-23T06:40:00;99862.25;;;12.06;75.10
54194;BME280;40102;50.906;6.972;2023-03-23T06:42:26;99872.88;;;12.19;74.03
54194;BME280;40102;50.906;6.972;2023-03-23T06:44:52;99862.31;;;12.28;72.97
54194;BME280;40102;50.906;6.972;2023-03-23T06:47:17;99885.16;;;12.45;73.52
54194;BME280;40102;50.906;6.972;2023-03-23T06:49:43;99876.03;;;12.48;72.12
54194;BME280;40102;50.906;6.972;2023-03-23T06:52:08;99881.78;;;12.54;71.65
54194;BME280;40102;50.906;6.972;2023-03-23T06:54:33;99888.13;;;12.53;71.10
54194;BME280;40102;50.906;6.972;2023-03-23T06:56:59;99883.84;;;12.51;70.98
54194;BME280;40102;50.906;6.972;2023-03-23T06:59:24;99890.41;;;12.47;71.21
54194;BME280;40102;50.906;6.972;2023-03-23T07:01:50;99878.56;;;12.38;71.40
54194;BME280;40102;50.906;6.972;2023-03-23T07:04:18;99893.41;;;12.31;72.02
54194;BME280;40102;50.906;6.972;2023-03-23T07:06:43;99893.53;;;12.29;72.18
54194;BME280;40102;50.906;6.972;2023-03-23T07:09:08;99896.56;;;12.25;72.26
54194;BME280;40102;50.906;6.972;2023-03-23T07:11:34;99885.81;;;12.25;72.45
54194;BME280;40102;50.906;6.972;2023-03-23T07:13:59;99891.19;;;12.25;71.94
54194;BME280;40102;50.906;6.972;2023-03-23T07:16:25;99887.88;;;12.21;71.60
54194;BME280;40102;50.906;6.972;2023-03-23T07:18:51;99881.66;;;12.21;72.46
54194;BME280;40102;50.906;6.972;2023-03-23T07:21:16;99878.03;;;12.22;71.67
54194;BME280;40102;50.906;6.972;2023-03-23T07:23:42;99888.75;;;12.22;72.01
54194;BME280;40102;50.906;6.972;2023-03-23T07:26:07;99890.97;;;12.28;71.79
54194;BME280;40102;50.906;6.972;2023-03-23T07:28:32;99891.19;;;12.25;71.55
54194;BME280;40102;50.906;6.972;2023-03-23T07:30:58;99893.75;;;12.26;70.73
54194;BME280;40102;50.906;6.972;2023-03-23T07:33:23;99892.56;;;12.30;70.46
54194;BME280;40102;50.906;6.972;2023-03-23T07:35:48;99868.66;;;12.27;70.19
54194;BME280;40102;50.906;6.972;2023-03-23T07:38:14;99882.34;;;12.36;69.73
54194;BME280;40102;50.906;6.972;2023-03-23T07:40:39;99878.91;;;12.33;70.03
54194;BME280;40102;50.906;6.972;2023-03-23T07:43:05;99879.03;;;12.32;70.31
54194;BME280;40102;50.906;6.972;2023-03-23T07:45:32;99893.19;;;12.34;70.20
54194;BME280;40102;50.906;6.972;2023-03-23T07:47:58;99893.91;;;12.36;70.44
54194;BME280;40102;50.906;6.972;2023-03-23T07:50:25;99889.28;;;12.38;69.71
54194;BME280;40102;50.906;6.972;2023-03-23T07:52:53;99899.03;;;12.39;69.47
54194;BME280;40102;50.906;6.972;2023-03-23T07:55:19;99889.41;;;12.37;69.57
54194;BME280;40102;50.906;6.972;2023-03-23T07:57:46;99898.56;;;12.45;69.02
54194;BME280;40102;50.906;6.972;2023-03-23T08:00:13;99889.78;;;12.43;69.29
54194;BME280;40102;50.906;6.972;2023-03-23T08:02:49;99888.72;;;12.46;69.26
54194;BME280;40102;50.906;6.972;2023-03-23T08:05:15;99897.59;;;12.46;68.61
54194;BME280;40102;50.906;6.972;2023-03-23T08:07:42;99887.84;;;12.45;68.82
54194;BME280;40102;50.906;6.972;2023-03-23T08:10:09;99890.66;;;12.44;69.06
54194;BME280;40102;50.906;6.972;2023-03-23T08:12:39;99889.22;;;12.51;68.98
54194;BME280;40102;50.906;6.972;2023-03-23T08:15:06;99884.81;;;12.50;68.90
54194;BME280;40102;50.906;6.972;2023-03-23T08:17:32;99885.06;;;12.47;68.85
54194;BME280;40102;50.906;6.972;2023-03-23T08:19:58;99880.41;;;12.49;68.87
54194;BME280;40102;50.906;6.972;2023-03-23T08:22:23;99886.53;;;12.51;68.55
54194;BME280;40102;50.906;6.972;2023-03-23T08:24:50;99896.78;;;12.57;68.13
54194;BME280;40102;50.906;6.972;2023-03-23T08:27:15;99898.63;;;12.56;68.37
54194;BME280;40102;50.906;6.972;2023-03-23T08:29:40;99890.56;;;12.56;67.90
54194;BME280;40102;50.906;6.972;2023-03-23T08:32:06;99895.56;;;12.61;68.06
54194;BME280;40102;50.906;6.972;2023-03-23T08:34:31;99902.78;;;12.60;67.94
54194;BME280;40102;50.906;6.972;2023-03-23T08:36:57;99889.13;;;12.63;67.66
54194;BME280;40102;50.906;6.972;2023-03-23T08:39:23;99899.00;;;12.63;67.73
54194;BME280;40102;50.906;6.972;2023-03-23T08:41:50;99895.56;;;12.61;68.03
54194;BME280;40102;50.906;6.972;2023-03-23T08:44:15;99901.56;;;12.64;67.60
54194;BME280;40102;50.906;6.972;2023-03-23T08:46:41;99910.22;;;12.68;67.18
54194;BME280;40102;50.906;6.972;2023-03-23T08:49:07;99888.38;;;12.61;67.09
54194;BME280;40102;50.906;6.972;2023-03-23T08:51:33;99898.41;;;12.71;66.80
54194;BME280;40102;50.906;6.972;2023-03-23T08:53:59;99917.94;;;12.73;66.93
54194;BME280;40102;50.906;6.972;2023-03-23T08:56:24;99906.47;;;12.71;66.76
54194;BME280;40102;50.906;6.972;2023-03-23T08:58:50;99910.00;;;12.71;66.79
54194;BME280;40102;50.906;6.972;2023-03-23T09:01:15;99922.56;;;12.82;66.51
54194;BME280;40102;50.906;6.972;2023-03-23T09:03:41;99925.25;;;12.82;66.50
54194;BME280;40102;50.906;6.972;2023-03-23T09:06:08;99923.44;;;12.82;66.45
54194;BME280;40102;50.906;6.972;2023-03-23T09:08:36;99932.34;;;12.83;66.52
54194;BME280;40102;50.906;6.972;2023-03-23T09:11:04;99933.06;;;12.85;66.17
54194;BME280;40102;50.906;6.972;2023-03-23T09:13:30;99935.63;;;12.86;66.28
54194;BME280;40102;50.906;6.972;2023-03-23T09:15:56;99956.13;;;12.87;66.41
54194;BME280;40102;50.906;6.972;2023-03-23T09:18:23;99946.63;;;12.94;66.05
54194;BME280;40102;50.906;6.972;2023-03-23T09:20:52;99944.56;;;12.98;65.92
54194;BME280;40102;50.906;6.972;2023-03-23T09:23:18;99937.84;;;12.92;65.88
54194;BME280;40102;50.906;6.972;2023-03-23T09:25:43;99917.97;;;12.95;66.39
54194;BME280;40102;50.906;6.972;2023-03-23T09:28:09;99931.66;;;13.03;65.80
54194;BME280;40102;50.906;6.972;2023-03-23T09:30:36;99928.84;;;13.05;65.57
54194;BME280;40102;50.906;6.972;2023-03-23T09:33:03;99927.63;;;13.09;65.20
54194;BME280;40102;50.906;6.972;2023-03-23T09:35:30;99926.78;;;13.08;64.47
54194;BME280;40102;50.906;6.972;2023-03-23T09:37:57;99929.47;;;13.08;65.06
54194;BME280;40102;50.906;6.972;2023-03-23T09:40:29;99938.00;;;13.13;64.76
54194;BME280;40102;50.906;6.972;2023-03-23T09:48:53;99953.03;;;13.16;62.17
54194;BME280;40102;50.906;6.972;2023-03-23T09:54:03;99960.34;;;13.14;62.00
54194;BME280;40102;50.906;6.972;2023-03-23T09:56:34;99949.84;;;13.11;61.72
54194;BME280;40102;50.906;6.972;2023-03-23T09:59:24;99958.50;;;13.14;61.63
54194;BME280;40102;50.906;6.972;2023-03-23T10:01:53;99951.66;;;13.10;61.70
54194;BME280;40102;50.906;6.972;2023-03-23T10:07:17;99959.28;;;13.16;62.19
54194;BME280;40102;50.906;6.972;2023-03-23T10:09:45;99948.75;;;13.13;63.29
54194;BME280;40102;50.906;6.972;2023-03-23T10:12:38;99939.72;;;13.14;63.73
54194;BME280;40102;50.906;6.972;2023-03-23T10:15:16;99951.09;;;13.18;64.26
54194;BME280;40102;50.906;6.972;2023-03-23T10:17:54;99940.34;;;13.18;64.46
54194;BME280;40102;50.906;6.972;2023-03-23T10:20:31;99955.50;;;13.30;64.47
54194;BME280;40102;50.906;6.972;2023-03-23T10:23:05;99950.50;;;13.37;64.68
54194;BME280;40102;50.906;6.972;2023-03-23T10:25:35;99957.34;;;13.41;65.30
54194;BME280;40102;50.906;6.972;2023-03-23T10:28:11;99951.72;;;13.33;66.12
54194;BME280;40102;50.906;6.972;2023-03-23T10:30:51;99965.41;;;13.29;66.51
54194;BME280;40102;50.906;6.972;2023-03-23T10:36:10;99961.25;;;13.25;67.46
54194;BME280;40102;50.906;6.972;2023-03-23T10:39:00;99946.34;;;13.21;68.45
54194;BME280;40102;50.906;6.972;2023-03-23T10:41:27;99952.16;;;13.15;68.82
54194;BME280;40102;50.906;6.972;2023-03-23T10:43:53;99949.09;;;13.09;69.22
54194;BME280;40102;50.906;6.972;2023-03-23T10:49:07;99952.41;;;13.12;69.87
54194;BME280;40102;50.906;6.972;2023-03-23T10:51:37;99959.38;;;13.15;70.32
54194;BME280;40102;50.906;6.972;2023-03-23T10:54:04;99959.38;;;13.15;70.45
54194;BME280;40102;50.906;6.972;2023-03-23T10:56:42;99952.06;;;13.17;70.79
54194;BME280;40102;50.906;6.972;2023-03-23T10:59:19;99956.59;;;13.16;70.79
54194;BME280;40102;50.906;6.972;2023-03-23T11:01:51;99959.78;;;13.21;71.15
54194;BME280;40102;50.906;6.972;2023-03-23T11:04:18;99962.34;;;13.23;71.02
54194;BME280;40102;50.906;6.972;2023-03-23T11:06:57;99966.72;;;13.24;70.75
54194;BME280;40102;50.906;6.972;2023-03-23T11:09:36;99966.88;;;13.34;70.16
54194;BME280;40102;50.906;6.972;2023-03-23T11:12:02;99959.28;;;13.39;70.42
54194;BME280;40102;50.906;6.972;2023-03-23T11:14:30;99965.53;;;13.39;70.59
54194;BME280;40102;50.906;6.972;2023-03-23T11:16:58;99963.69;;;13.40;70.69
54194;BME280;40102;50.906;6.972;2023-03-23T11:19:35;99952.59;;;13.44;69.98
54194;BME280;40102;50.906;6.972;2023-03-23T11:24:35;99946.00;;;13.48;69.26
54194;BME280;40102;50.906;6.972;2023-03-23T11:27:01;99946.59;;;13.52;69.42
54194;BME280;40102;50.906;6.972;2023-03-23T11:29:32;99943.78;;;13.53;69.49
54194;BME280;40102;50.906;6.972;2023-03-23T11:32:06;99943.31;;;13.48;69.08
54194;BME280;40102;50.906;6.972;2023-03-23T11:34:40;99936.94;;;13.49;69.21
54194;BME280;40102;50.906;6.972;2023-03-23T11:37:13;99946.97;;;13.47;69.13
54194;BME280;40102;50.906;6.972;2023-03-23T11:39:59;99940.63;;;13.48;69.24
54194;BME280;40102;50.906;6.972;2023-03-23T11:42:36;99937.69;;;13.51;69.22
54194;BME280;40102;50.906;6.972;2023-03-23T11:45:31;99935.84;;;13.52;69.81
54194;BME280;40102;50.906;6.972;2023-03-23T11:48:10;99929.63;;;13.51;69.42
54194;BME280;40102;50.906;6.972;2023-03-23T11:53:27;99925.34;;;13.49;69.28
54194;BME280;40102;50.906;6.972;2023-03-23T11:58:32;99910.22;;;13.48;68.93
54194;BME280;40102;50.906;6.972;2023-03-23T12:01:00;99942.69;;;13.56;69.30
54194;BME280;40102;50.906;6.972;2023-03-23T12:06:44;99941.22;;;13.63;69.09
54194;BME280;40102;50.906;6.972;2023-03-23T12:09:32;99943.16;;;13.61;69.65
54194;BME280;40102;50.906;6.972;2023-03-23T12:12:22;99954.78;;;13.61;69.95
54194;BME280;40102;50.906;6.972;2023-03-23T12:15:01;99946.22;;;13.68;69.30
54194;BME280;40102;50.906;6.972;2023-03-23T12:36:16;99926.91;;;13.74;66.32
54194;BME280;40102;50.906;6.972;2023-03-23T12:44:05;99925.56;;;13.79;66.24
54194;BME280;40102;50.906;6.972;2023-03-23T12:49:36;99932.16;;;13.86;65.97
54194;BME280;40102;50.906;6.972;2023-03-23T12:55:04;99931.53;;;13.83;66.30
54194;BME280;40102;50.906;6.972;2023-03-23T13:02:49;99938.44;;;14.08;64.27
54194;BME280;40102;50.906;6.972;2023-03-23T13:08:16;99960.38;;;14.35;64.23
54194;BME280;40102;50.906;6.972;2023-03-23T13:10:51;99946.19;;;14.33;64.44
54194;BME280;40102;50.906;6.972;2023-03-23T13:13:22;99949.34;;;14.38;64.71
54194;BME280;40102;50.906;6.972;2023-03-23T13:23:42;99934.78;;;14.52;63.74
54194;BME280;40102;50.906;6.972;2023-03-23T13:26:16;99934.13;;;14.60;63.41
54194;BME280;40102;50.906;6.972;2023-03-23T13:31:26;99963.22;;;14.66;62.13
54194;BME280;40102;50.906;6.972;2023-03-23T13:34:23;99985.31;;;14.48;62.58
54194;BME280;40102;50.906;6.972;2023-03-23T13:36:55;99952.28;;;14.35;63.15
54194;BME280;40102;50.906;6.972;2023-03-23T13:39:26;99961.13;;;14.26;63.62
54194;BME280;40102;50.906;6.972;2023-03-23T13:50:02;99945.09;;;14.36;64.89
54194;BME280;40102;50.906;6.972;2023-03-23T13:57:55;99947.78;;;14.88;62.63
54194;BME280;40102;50.906;6.972;2023-03-23T14:00:25;99953.84;;;15.02;63.17
54194;BME280;40102;50.906;6.972;2023-03-23T14:05:43;99961.72;;;15.14;61.33
54194;BME280;40102;50.906;6.972;2023-03-23T14:10:53;99952.06;;;14.91;62.21
54194;BME280;40102;50.906;6.972;2023-03-23T14:14:03;99964.94;;;14.87;62.70
54194;BME280;40102;50.906;6.972;2023-03-23T14:16:16;99950.94;;;14.73;62.66
54194;BME280;40102;50.906;6.972;2023-03-23T14:18:50;99940.78;;;14.76;63.11
54194;BME280;40102;50.906;6.972;2023-03-23T14:21:25;99933.47;;;14.67;63.28
54194;BME280;40102;50.906;6.972;2023-03-23T14:23:51;99928.22;;;14.66;63.58
54194;BME280;40102;50.906;6.972;2023-03-23T14:26:19;99955.13;;;14.66;62.13
54194;BME280;40102;50.906;6.972;2023-03-23T14:28:49;99928.94;;;14.68;62.20
54194;BME280;40102;50.906;6.972;2023-03-23T14:31:23;99941.88;;;14.74;61.44
54194;BME280;40102;50.906;6.972;2023-03-23T14:33:50;99928.56;;;14.72;62.02
54194;BME280;40102;50.906;6.972;2023-03-23T14:36:24;99921.53;;;14.60;63.02
54194;BME280;40102;50.906;6.972;2023-03-23T14:39:15;99925.19;;;14.59;63.34
54194;BME280;40102;50.906;6.972;2023-03-23T14:41:42;99930.00;;;14.55;63.60
54194;BME280;40102;50.906;6.972;2023-03-23T14:44:17;99933.19;;;14.49;64.18
54194;BME280;40102;50.906;6.972;2023-03-23T14:46:44;99934.91;;;14.39;64.15
54194;BME280;40102;50.906;6.972;2023-03-23T14:49:14;99933.47;;;14.35;64.29
54194;BME280;40102;50.906;6.972;2023-03-23T14:51:53;99944.47;;;14.32;64.69
54194;BME280;40102;50.906;6.972;2023-03-23T14:54:29;99953.03;;;14.37;64.53
54194;BME280;40102;50.906;6.972;2023-03-23T14:57:05;99959.38;;;14.47;65.16
54194;BME280;40102;50.906;6.972;2023-03-23T14:59:34;99931.50;;;14.37;66.36
54194;BME280;40102;50.906;6.972;2023-03-23T15:01:59;99942.53;;;14.66;66.85
54194;BME280;40102;50.906;6.972;2023-03-23T15:04:27;99940.69;;;14.87;66.13
54194;BME280;40102;50.906;6.972;2023-03-23T15:06:58;99939.84;;;15.08;64.26
54194;BME280;40102;50.906;6.972;2023-03-23T15:09:25;99936.69;;;15.03;64.02
54194;BME280;40102;50.906;6.972;2023-03-23T15:12:00;99940.69;;;14.87;64.64
54194;BME280;40102;50.906;6.972;2023-03-23T15:14:44;99922.31;;;14.93;63.01
54194;BME280;40102;50.906;6.972;2023-03-23T15:17:19;99910.81;;;14.90;64.80